createdAt,value
2022-10-05T00:05:50.932Z,4
2022-10-05T00:11:47.666Z,6
2022-10-05T00:17:20.443Z,4
2022-10-05T00:22:55.200Z,4
2022-10-05T00:28:33.481Z,0
2022-10-05T00:34:34.413Z,2
2022-10-05T00:40:13.028Z,8
2022-10-05T00:46:01.011Z,8
2022-10-05T00:51:50.866Z,2
2022-10-05T00:57:25.857Z,6
2022-10-05T01:03:02.257Z,6
2022-10-05T01:09:13.415Z,0
2022-10-05T01:15:06.193Z,2
2022-10-05T01:20:42.411Z,8
2022-10-05T01:26:22.491Z,4
2022-10-05T01:31:58.514Z,2
2022-10-05T01:37:34.755Z,8
2022-10-05T01:43:17.330Z,10
2022-10-05T01:49:02.836Z,6
2022-10-05T01:54:46.623Z,4
2022-10-05T02:00:31.991Z,4
2022-10-05T02:06:31.725Z,4
2022-10-05T02:12:43.090Z,6
2022-10-05T02:18:36.448Z,4
2022-10-05T02:24:19.580Z,8
2022-10-05T02:30:01.936Z,2
2022-10-05T02:35:39.783Z,0
2022-10-05T02:41:35.888Z,4
2022-10-05T02:47:10.682Z,2
2022-10-05T02:53:29.435Z,6
2022-10-05T02:59:05.867Z,14
2022-10-05T03:05:09.376Z,0
2022-10-05T03:10:50.478Z,2
2022-10-05T03:16:26.455Z,2
2022-10-05T03:22:01.945Z,2
2022-10-05T03:28:41.999Z,8
2022-10-05T03:34:17.519Z,2
2022-10-05T03:40:22.566Z,6
2022-10-05T03:45:58.072Z,8
2022-10-05T03:51:41.962Z,4
2022-10-05T03:57:16.857Z,10
2022-10-05T04:02:55.524Z,10
2022-10-05T04:08:53.024Z,8
2022-10-05T04:14:49.981Z,6
2022-10-05T04:20:28.675Z,6
2022-10-05T04:26:12.877Z,8
2022-10-05T04:31:48.463Z,0
2022-10-05T04:37:31.816Z,2
2022-10-05T04:43:09.437Z,6
2022-10-05T04:49:05.310Z,2
2022-10-05T04:54:43.975Z,4
2022-10-05T05:01:05.689Z,6
2022-10-05T05:06:40.911Z,6
2022-10-05T05:12:24.803Z,6
2022-10-05T05:18:08.863Z,4
2022-10-05T05:23:43.870Z,0
2022-10-05T05:29:19.909Z,4
2022-10-05T05:35:00.519Z,2
2022-10-05T05:40:36.630Z,2
2022-10-05T05:47:17.387Z,0
2022-10-05T05:53:00.913Z,0
2022-10-05T05:58:58.240Z,2
2022-10-05T06:04:33.746Z,2
2022-10-05T06:10:12.523Z,6
2022-10-05T06:16:21.883Z,0
2022-10-05T06:22:03.102Z,6
2022-10-05T06:27:38.028Z,2
2022-10-05T06:33:13.284Z,2
2022-10-05T06:38:53.214Z,0
2022-10-05T06:44:34.517Z,8
2022-10-05T06:50:23.836Z,4
2022-10-05T06:55:59.748Z,6
2022-10-05T07:01:35.455Z,4
2022-10-05T07:07:45.557Z,4
2022-10-05T07:13:41.743Z,2
2022-10-05T07:19:16.717Z,8
2022-10-05T07:24:52.832Z,6
2022-10-05T07:30:27.776Z,2
2022-10-05T07:36:04.743Z,8
2022-10-05T07:41:39.544Z,2
2022-10-05T07:47:14.637Z,2
2022-10-05T07:52:49.868Z,4
2022-10-05T07:58:25.044Z,2
2022-10-05T08:04:00.054Z,6
2022-10-05T08:09:36.637Z,6
2022-10-05T08:15:11.459Z,8
2022-10-05T08:20:46.346Z,10
2022-10-05T08:26:21.493Z,2
2022-10-05T08:31:57.714Z,10
2022-10-05T08:37:32.944Z,4
2022-10-05T08:43:09.750Z,9
2022-10-05T08:48:44.963Z,2
2022-10-05T08:54:19.878Z,2
2022-10-05T08:59:59.029Z,6
2022-10-05T09:05:35.446Z,6
2022-10-05T09:11:32.279Z,6
2022-10-05T09:17:05.137Z,4
2022-10-05T09:22:40.062Z,6
2022-10-05T09:28:15.721Z,4
2022-10-05T09:33:51.725Z,2
2022-10-05T09:39:36.606Z,4
2022-10-05T09:45:11.625Z,2
2022-10-05T09:50:47.114Z,4
2022-10-05T09:56:22.614Z,4
2022-10-05T10:02:00.942Z,6
2022-10-05T10:08:12.284Z,0
2022-10-05T10:14:09.426Z,2
2022-10-05T10:19:42.584Z,0
2022-10-05T10:25:19.659Z,2
2022-10-05T10:30:55.793Z,0
2022-10-05T10:36:31.391Z,4
2022-10-05T10:42:08.302Z,2
2022-10-05T10:47:43.406Z,2
2022-10-05T10:53:18.969Z,0
2022-10-05T10:58:54.388Z,4
2022-10-05T11:04:30.538Z,0
2022-10-05T11:10:09.502Z,0
2022-10-05T11:15:46.414Z,0
2022-10-05T11:21:22.058Z,4
2022-10-05T11:26:57.067Z,0
2022-10-05T11:32:34.800Z,0
2022-10-05T11:38:09.852Z,0
2022-10-05T11:43:44.748Z,0
2022-10-05T11:49:20.326Z,0
2022-10-05T11:55:13.362Z,0
2022-10-05T12:00:49.912Z,0
2022-10-05T12:06:25.472Z,0
2022-10-05T12:12:22.421Z,2
2022-10-05T12:17:59.365Z,0
2022-10-05T12:23:35.550Z,0
2022-10-05T12:29:22.360Z,2
2022-10-05T12:35:14.171Z,0
2022-10-05T12:41:19.202Z,0
2022-10-05T12:47:03.478Z,0
2022-10-05T12:52:38.470Z,0
2022-10-05T12:58:15.417Z,0
2022-10-05T13:04:21.780Z,2
2022-10-05T13:10:00.632Z,0
2022-10-05T13:15:36.866Z,0
2022-10-05T13:21:11.703Z,0
2022-10-05T13:26:53.136Z,0
2022-10-05T13:32:35.542Z,0
2022-10-05T13:38:11.465Z,0
2022-10-05T13:43:46.338Z,0
2022-10-05T13:49:51.354Z,0
2022-10-05T13:56:00.905Z,0
2022-10-05T14:01:41.121Z,2
2022-10-05T14:07:24.895Z,2
2022-10-05T14:13:21.871Z,2
2022-10-05T14:18:55.874Z,2
2022-10-05T14:24:55.425Z,10
2022-10-05T14:30:30.728Z,2
2022-10-05T14:36:09.526Z,2
2022-10-05T14:42:30.968Z,2
2022-10-05T14:48:23.470Z,4
2022-10-05T14:54:00.834Z,4
2022-10-05T14:59:36.404Z,2
2022-10-05T15:05:17.039Z,4
2022-10-05T15:11:13.800Z,2
2022-10-05T15:16:50.610Z,0
2022-10-05T15:22:27.983Z,0
2022-10-05T15:28:04.018Z,2
2022-10-05T15:33:49.031Z,2
2022-10-05T15:39:27.968Z,4
2022-10-05T15:45:41.537Z,4
2022-10-05T15:51:19.933Z,2
2022-10-05T15:56:54.556Z,2
2022-10-05T16:02:33.909Z,2
2022-10-05T16:08:14.124Z,4
2022-10-05T16:14:10.813Z,6
2022-10-05T16:20:04.483Z,4
2022-10-05T16:25:39.847Z,4
2022-10-05T16:31:23.329Z,14
2022-10-05T16:37:07.694Z,14
2022-10-05T16:42:42.879Z,14
2022-10-05T16:48:22.406Z,14
2022-10-05T16:53:58.607Z,26
2022-10-05T17:00:00.407Z,18
2022-10-05T17:05:43.798Z,22
2022-10-05T17:11:18.698Z,18
2022-10-05T17:16:53.864Z,18
2022-10-05T17:22:30.416Z,29
2022-10-05T17:28:11.839Z,31
2022-10-05T17:33:47.365Z,38
2022-10-05T17:39:22.171Z,22
2022-10-05T17:44:56.912Z,24
2022-10-05T17:50:32.037Z,46
2022-10-05T17:56:06.857Z,50
2022-10-05T18:01:42.115Z,40
2022-10-05T18:07:18.405Z,36
2022-10-05T18:12:53.300Z,46
2022-10-05T18:18:28.820Z,36
2022-10-05T18:24:04.095Z,40
2022-10-05T18:29:38.743Z,18
2022-10-05T18:35:13.871Z,54
2022-10-05T18:40:49.680Z,38
2022-10-05T18:46:25.676Z,40
2022-10-05T18:52:04.612Z,87
2022-10-05T18:57:40.050Z,40
2022-10-05T19:03:14.905Z,52
2022-10-05T19:08:51.083Z,61
2022-10-05T19:14:29.022Z,40
2022-10-05T19:20:04.356Z,32
2022-10-05T19:25:39.109Z,30
2022-10-05T19:31:16.502Z,63
2022-10-05T19:36:51.616Z,40
2022-10-05T19:42:26.492Z,30
2022-10-05T19:48:02.099Z,32
2022-10-05T19:53:46.347Z,52
2022-10-05T19:59:21.445Z,34
2022-10-05T20:04:57.009Z,54
2022-10-05T20:10:33.273Z,50
2022-10-05T20:16:09.468Z,42
2022-10-05T20:22:05.937Z,40
2022-10-05T20:27:40.805Z,34
2022-10-05T20:33:16.617Z,56
2022-10-05T20:39:03.656Z,32
2022-10-05T20:44:39.430Z,59
2022-10-05T20:50:14.231Z,30
2022-10-05T20:55:49.346Z,30
2022-10-05T21:01:24.843Z,52
2022-10-05T21:06:59.821Z,26
2022-10-05T21:12:36.621Z,34
2022-10-05T21:18:11.630Z,40
2022-10-05T21:23:46.561Z,36
2022-10-05T21:29:21.842Z,32
2022-10-05T21:35:00.931Z,50
2022-10-05T21:40:35.959Z,42
2022-10-05T21:46:14.439Z,48
2022-10-05T21:51:55.793Z,36
2022-10-05T21:57:30.680Z,36
2022-10-05T22:03:06.220Z,22
2022-10-05T22:08:41.160Z,55
2022-10-05T22:14:17.042Z,63
2022-10-05T22:19:52.116Z,38
2022-10-05T22:25:27.076Z,36
2022-10-05T22:31:01.867Z,58
2022-10-05T22:36:58.671Z,46
2022-10-05T22:42:33.788Z,30
2022-10-05T22:48:14.414Z,50
2022-10-05T22:53:51.469Z,44
2022-10-05T22:59:26.561Z,38
2022-10-05T23:05:01.481Z,50
2022-10-05T23:10:46.764Z,50
2022-10-05T23:16:24.631Z,58
2022-10-05T23:21:59.716Z,40
2022-10-05T23:27:35.708Z,50
2022-10-05T23:33:10.632Z,34
2022-10-05T23:38:45.986Z,44
2022-10-05T23:44:20.952Z,28
2022-10-05T23:49:55.610Z,34
2022-10-05T23:55:30.642Z,36
